createdAt,value
2018-06-15T00:00:28.869Z,100.00
2018-06-15T00:03:03.200Z,100.00
2018-06-15T00:05:32.907Z,100.00
2018-06-15T00:08:02.247Z,100.00
2018-06-15T00:10:31.484Z,100.00
2018-06-15T00:13:00.508Z,100.00
2018-06-15T00:15:29.548Z,100.00
2018-06-15T00:17:58.516Z,100.00
2018-06-15T00:20:27.553Z,100.00
2018-06-15T00:22:56.572Z,100.00
2018-06-15T00:25:25.604Z,100.00
2018-06-15T00:27:54.577Z,100.00
2018-06-15T00:30:23.603Z,100.00
2018-06-15T00:32:52.552Z,100.00
2018-06-15T00:35:21.682Z,100.00
2018-06-15T00:37:50.670Z,100.00
2018-06-15T00:40:19.865Z,100.00
2018-06-15T00:42:49.152Z,100.00
2018-06-15T00:45:18.496Z,100.00
2018-06-15T00:47:47.936Z,100.00
2018-06-15T00:50:17.257Z,100.00
2018-06-15T00:52:46.672Z,100.00
2018-06-15T00:55:16.064Z,100.00
2018-06-15T00:57:48.331Z,100.00
2018-06-15T01:00:17.967Z,100.00
2018-06-15T01:02:47.421Z,100.00
2018-06-15T01:05:16.668Z,100.00
2018-06-15T01:07:45.944Z,100.00
2018-06-15T01:10:15.164Z,100.00
2018-06-15T01:12:44.398Z,100.00
2018-06-15T01:15:13.623Z,100.00
2018-06-15T01:17:42.831Z,100.00
2018-06-15T01:20:12.058Z,100.00
2018-06-15T01:22:41.292Z,100.00
2018-06-15T01:25:10.495Z,100.00
2018-06-15T01:27:39.724Z,100.00
2018-06-15T01:30:08.951Z,100.00
2018-06-15T01:32:38.320Z,100.00
2018-06-15T01:35:07.605Z,100.00
2018-06-15T01:37:36.807Z,100.00
2018-06-15T01:40:06.048Z,100.00
2018-06-15T01:42:35.271Z,100.00
2018-06-15T01:45:04.317Z,100.00
2018-06-15T01:47:33.613Z,100.00
2018-06-15T01:50:02.830Z,100.00
2018-06-15T01:52:32.212Z,100.00
2018-06-15T01:55:01.641Z,100.00
2018-06-15T01:57:31.107Z,100.00
2018-06-15T02:00:00.427Z,100.00
2018-06-15T02:02:29.683Z,100.00
2018-06-15T02:04:58.979Z,99.85
2018-06-15T02:07:28.200Z,99.87
2018-06-15T02:09:57.552Z,100.00
2018-06-15T02:12:26.922Z,100.00
2018-06-15T02:14:56.243Z,100.00
2018-06-15T02:17:25.617Z,100.00
2018-06-15T02:19:54.892Z,100.00
2018-06-15T02:22:24.163Z,100.00
2018-06-15T02:24:53.555Z,100.00
2018-06-15T02:27:22.857Z,100.00
2018-06-15T02:29:52.185Z,100.00
2018-06-15T02:32:21.560Z,100.00
2018-06-15T02:34:50.860Z,100.00
2018-06-15T02:37:20.250Z,100.00
2018-06-15T02:39:49.590Z,100.00
2018-06-15T02:42:18.842Z,100.00
2018-06-15T02:44:48.086Z,100.00
2018-06-15T02:47:17.292Z,100.00
2018-06-15T02:49:46.277Z,100.00
2018-06-15T02:52:15.836Z,100.00
2018-06-15T02:54:45.132Z,100.00
2018-06-15T02:57:14.588Z,100.00
2018-06-15T02:59:43.808Z,100.00
2018-06-15T03:02:13.098Z,100.00
2018-06-15T03:04:42.448Z,100.00
2018-06-15T03:07:11.634Z,100.00
2018-06-15T03:09:41.088Z,100.00
2018-06-15T03:12:10.553Z,100.00
2018-06-15T03:14:39.752Z,99.69
2018-06-15T03:17:09.045Z,100.00
2018-06-15T03:19:38.380Z,100.00
2018-06-15T03:22:07.766Z,100.00
2018-06-15T03:24:37.047Z,100.00
2018-06-15T03:27:06.346Z,100.00
2018-06-15T03:29:35.589Z,98.92
2018-06-15T03:32:04.882Z,99.78
2018-06-15T03:34:34.159Z,99.30
2018-06-15T03:37:03.737Z,100.00
2018-06-15T03:39:33.000Z,99.59
2018-06-15T03:42:02.544Z,98.54
2018-06-15T03:44:31.807Z,97.34
2018-06-15T03:47:01.096Z,97.19
2018-06-15T03:49:30.396Z,98.46
2018-06-15T03:51:59.613Z,97.65
2018-06-15T03:54:28.651Z,98.54
2018-06-15T03:56:58.029Z,97.37
2018-06-15T03:59:27.277Z,96.60
2018-06-15T04:01:56.574Z,96.55
2018-06-15T04:04:25.885Z,96.63
2018-06-15T04:06:55.091Z,96.52
2018-06-15T04:09:24.428Z,95.46
2018-06-15T04:11:53.583Z,96.26
2018-06-15T04:14:22.885Z,95.44
2018-06-15T04:16:52.200Z,96.67
2018-06-15T04:19:21.533Z,95.23
2018-06-15T04:21:50.800Z,94.58
2018-06-15T04:24:20.030Z,95.67
2018-06-15T04:26:49.245Z,94.57
2018-06-15T04:29:18.629Z,94.20
2018-06-15T04:31:47.984Z,94.26
2018-06-15T04:34:17.268Z,94.20
2018-06-15T04:36:46.542Z,93.95
2018-06-15T04:39:15.861Z,93.43
2018-06-15T04:41:45.252Z,92.36
2018-06-15T04:44:14.504Z,91.79
2018-06-15T04:46:43.810Z,91.49
2018-06-15T04:49:13.125Z,91.11
2018-06-15T04:51:42.406Z,90.60
2018-06-15T04:54:11.605Z,89.60
2018-06-15T04:56:40.967Z,87.30
2018-06-15T04:59:09.920Z,85.87
2018-06-15T05:01:39.245Z,83.92
2018-06-15T05:04:12.513Z,83.70
2018-06-15T05:06:41.894Z,82.79
2018-06-15T05:09:11.790Z,83.29
2018-06-15T05:11:41.413Z,79.35
2018-06-15T05:14:10.674Z,79.33
2018-06-15T05:16:39.644Z,78.80
2018-06-15T05:19:08.953Z,75.33
2018-06-15T05:21:38.275Z,76.23
2018-06-15T05:24:07.662Z,77.94
2018-06-15T05:26:37.052Z,78.62
2018-06-15T05:29:06.477Z,77.39
2018-06-15T05:31:35.828Z,75.49
2018-06-15T05:34:04.879Z,74.53
2018-06-15T05:36:34.147Z,74.34
2018-06-15T05:39:03.765Z,71.52
2018-06-15T05:41:33.041Z,69.86
2018-06-15T05:44:02.512Z,72.18
2018-06-15T05:46:31.735Z,70.24
2018-06-15T05:49:01.154Z,70.64
2018-06-15T05:51:30.525Z,70.53
2018-06-15T05:53:59.825Z,70.31
2018-06-15T05:56:29.182Z,70.15
2018-06-15T05:58:59.189Z,69.03
2018-06-15T06:01:28.447Z,70.18
2018-06-15T06:03:57.749Z,68.72
2018-06-15T06:06:26.921Z,67.26
2018-06-15T06:08:56.206Z,68.11
2018-06-15T06:11:25.508Z,69.67
2018-06-15T06:13:54.846Z,68.12
2018-06-15T06:16:24.143Z,68.91
2018-06-15T06:18:53.477Z,68.07
2018-06-15T06:21:22.656Z,68.84
2018-06-15T06:23:51.887Z,69.53
2018-06-15T06:26:21.209Z,68.66
2018-06-15T06:28:50.514Z,70.89
2018-06-15T06:31:19.829Z,68.83
2018-06-15T06:33:49.384Z,68.41
2018-06-15T06:36:18.348Z,69.31
2018-06-15T06:38:47.308Z,68.64
2018-06-15T06:41:16.844Z,70.02
2018-06-15T06:43:46.992Z,68.58
2018-06-15T06:46:16.197Z,70.61
2018-06-15T06:48:45.478Z,70.47
2018-06-15T06:51:14.752Z,70.70
2018-06-15T06:53:43.972Z,70.45
2018-06-15T06:56:12.983Z,70.10
2018-06-15T06:58:42.217Z,70.37
2018-06-15T07:01:11.494Z,69.50
2018-06-15T07:03:40.859Z,70.42
2018-06-15T07:06:10.188Z,68.29
2018-06-15T07:08:39.574Z,68.84
2018-06-15T07:11:09.000Z,67.79
2018-06-15T07:13:38.297Z,69.28
2018-06-15T07:16:07.492Z,68.37
2018-06-15T07:18:36.895Z,68.35
2018-06-15T07:21:06.138Z,65.75
2018-06-15T07:23:35.468Z,66.64
2018-06-15T07:26:05.020Z,66.66
2018-06-15T07:28:34.365Z,65.53
2018-06-15T07:31:03.572Z,65.26
2018-06-15T07:33:32.797Z,64.42
2018-06-15T07:36:02.009Z,63.53
2018-06-15T07:38:31.289Z,62.43
2018-06-15T07:41:00.492Z,61.43
2018-06-15T07:43:29.751Z,63.36
2018-06-15T07:45:59.142Z,62.47
2018-06-15T07:48:28.492Z,61.67
2018-06-15T07:50:57.653Z,61.13
2018-06-15T07:53:26.901Z,62.13
2018-06-15T07:55:56.222Z,60.51
2018-06-15T07:58:25.492Z,59.86
2018-06-15T08:00:54.620Z,61.64
2018-06-15T08:03:23.952Z,62.14
2018-06-15T08:05:53.268Z,60.63
2018-06-15T08:08:22.584Z,60.15
2018-06-15T08:10:51.902Z,58.28
2018-06-15T08:13:21.307Z,57.66
2018-06-15T08:15:50.373Z,57.43
2018-06-15T08:18:19.741Z,59.05
2018-06-15T08:20:49.101Z,59.40
2018-06-15T08:23:18.255Z,59.79
2018-06-15T08:25:47.444Z,58.82
2018-06-15T08:28:16.749Z,60.40
2018-06-15T08:30:45.908Z,58.76
2018-06-15T08:33:15.294Z,57.51
2018-06-15T08:35:44.637Z,56.50
2018-06-15T08:38:13.962Z,56.43
2018-06-15T08:40:43.288Z,57.90
2018-06-15T08:43:12.541Z,56.96
2018-06-15T08:45:41.836Z,57.13
2018-06-15T08:48:11.372Z,57.48
2018-06-15T08:50:40.876Z,55.81
2018-06-15T08:53:10.112Z,56.13
2018-06-15T08:55:39.585Z,55.93
2018-06-15T08:58:08.864Z,53.69
2018-06-15T09:00:38.157Z,55.64
2018-06-15T09:03:07.412Z,53.39
2018-06-15T09:05:36.518Z,55.32
2018-06-15T09:08:05.851Z,54.83
2018-06-15T09:10:35.085Z,54.07
2018-06-15T09:13:04.400Z,54.69
2018-06-15T09:15:33.547Z,54.36
2018-06-15T09:18:02.763Z,54.15
2018-06-15T09:20:31.740Z,56.40
2018-06-15T09:23:01.159Z,53.71
2018-06-15T09:25:30.581Z,52.39
2018-06-15T09:28:00.001Z,53.61
2018-06-15T09:30:29.376Z,55.09
2018-06-15T09:32:58.585Z,51.19
2018-06-15T09:35:27.828Z,52.12
2018-06-15T09:37:57.126Z,50.57
2018-06-15T09:40:26.415Z,51.54
2018-06-15T09:42:55.753Z,53.20
2018-06-15T09:45:25.018Z,53.29
2018-06-15T09:47:54.345Z,51.44
2018-06-15T09:50:23.656Z,54.87
2018-06-15T09:52:52.705Z,49.32
2018-06-15T09:55:21.992Z,50.85
2018-06-15T09:57:51.307Z,51.73
2018-06-15T10:00:25.753Z,52.30
2018-06-15T10:02:55.004Z,53.76
2018-06-15T10:05:24.325Z,49.86
2018-06-15T10:07:54.052Z,50.13
2018-06-15T10:10:23.278Z,49.50
2018-06-15T10:12:52.496Z,53.05
2018-06-15T10:15:21.863Z,48.52
2018-06-15T10:17:51.239Z,49.66
2018-06-15T10:20:20.524Z,49.11
2018-06-15T10:22:49.915Z,48.70
2018-06-15T10:25:19.314Z,49.43
2018-06-15T10:27:48.339Z,51.18
2018-06-15T10:30:17.483Z,50.33
2018-06-15T10:32:46.891Z,50.97
2018-06-15T10:35:16.042Z,50.66
2018-06-15T10:37:45.302Z,52.56
2018-06-15T10:40:14.717Z,52.29
2018-06-15T10:42:43.745Z,52.36
2018-06-15T10:45:12.737Z,52.96
2018-06-15T10:47:41.708Z,55.37
2018-06-15T10:50:10.819Z,55.05
2018-06-15T10:52:39.799Z,55.10
2018-06-15T10:55:08.993Z,55.43
2018-06-15T10:57:38.022Z,55.35
2018-06-15T11:00:07.039Z,56.09
2018-06-15T11:02:36.068Z,56.47
2018-06-15T11:05:05.226Z,57.11
2018-06-15T11:07:34.273Z,58.39
2018-06-15T11:10:03.264Z,57.89
2018-06-15T11:12:32.734Z,58.93
2018-06-15T11:15:01.684Z,59.20
2018-06-15T11:17:30.644Z,59.69
2018-06-15T11:19:59.605Z,59.41
2018-06-15T11:22:28.609Z,60.49
2018-06-15T11:24:57.717Z,60.34
2018-06-15T11:27:26.725Z,60.43
2018-06-15T11:29:55.773Z,61.98
2018-06-15T11:32:24.797Z,61.88
2018-06-15T11:34:53.748Z,61.57
2018-06-15T11:37:22.716Z,62.82
2018-06-15T11:39:51.765Z,63.24
2018-06-15T11:42:20.737Z,63.86
2018-06-15T11:44:49.691Z,63.91
2018-06-15T11:47:18.692Z,65.55
2018-06-15T11:49:47.725Z,67.49
2018-06-15T11:52:16.707Z,70.49
2018-06-15T11:54:45.736Z,72.79
2018-06-15T11:57:14.775Z,74.40
2018-06-15T11:59:44.140Z,75.25
2018-06-15T12:02:13.444Z,75.72
2018-06-15T12:04:42.625Z,77.43
2018-06-15T12:07:11.992Z,78.82
2018-06-15T12:09:40.950Z,78.80
2018-06-15T12:12:10.254Z,78.78
2018-06-15T12:14:39.325Z,78.72
2018-06-15T12:17:08.369Z,77.08
2018-06-15T12:19:37.343Z,76.44
2018-06-15T12:22:06.443Z,75.64
2018-06-15T12:24:35.425Z,79.10
2018-06-15T12:27:04.471Z,77.75
2018-06-15T12:29:33.493Z,78.40
2018-06-15T12:32:02.464Z,79.45
2018-06-15T12:34:31.597Z,80.75
2018-06-15T12:37:00.564Z,81.77
2018-06-15T12:39:29.547Z,81.77
2018-06-15T12:41:58.516Z,81.76
2018-06-15T12:44:27.661Z,81.52
2018-06-15T12:46:56.692Z,81.52
2018-06-15T12:49:25.751Z,81.80
2018-06-15T12:51:54.728Z,82.59
2018-06-15T12:54:23.747Z,82.61
2018-06-15T12:56:52.732Z,81.87
2018-06-15T12:59:21.775Z,82.89
2018-06-15T13:01:50.775Z,83.25
2018-06-15T13:04:20.166Z,82.27
2018-06-15T13:06:49.481Z,80.96
2018-06-15T13:09:18.544Z,80.92
2018-06-15T13:11:47.621Z,80.93
2018-06-15T13:14:16.689Z,81.61
2018-06-15T13:16:45.785Z,81.79
2018-06-15T13:19:14.805Z,82.18
2018-06-15T13:21:43.791Z,83.32
2018-06-15T13:24:12.767Z,82.88
2018-06-15T13:26:41.812Z,82.73
2018-06-15T13:29:11.120Z,81.58
2018-06-15T13:31:40.451Z,79.28
2018-06-15T13:34:09.981Z,79.37
2018-06-15T13:36:39.216Z,77.79
2018-06-15T13:39:11.599Z,78.59
2018-06-15T13:41:40.861Z,76.83
2018-06-15T13:44:10.236Z,77.73
2018-06-15T13:46:39.417Z,77.43
2018-06-15T13:49:08.717Z,77.03
2018-06-15T13:51:38.061Z,76.38
2018-06-15T13:54:07.362Z,77.53
2018-06-15T13:56:36.760Z,76.40
2018-06-15T13:59:06.120Z,74.66
2018-06-15T14:01:35.349Z,73.04
2018-06-15T14:04:04.875Z,73.94
2018-06-15T14:06:34.094Z,74.50
2018-06-15T14:09:03.484Z,72.09
2018-06-15T14:11:32.901Z,72.21
2018-06-15T14:14:02.280Z,70.74
2018-06-15T14:16:31.558Z,70.09
2018-06-15T14:19:01.026Z,69.54
2018-06-15T14:21:30.360Z,68.16
2018-06-15T14:23:59.393Z,68.96
2018-06-15T14:26:28.512Z,69.02
2018-06-15T14:28:57.655Z,69.70
2018-06-15T14:31:26.753Z,69.20
2018-06-15T14:33:55.961Z,70.73
2018-06-15T14:36:25.232Z,70.44
2018-06-15T14:38:54.312Z,71.75
2018-06-15T14:41:23.531Z,70.96
2018-06-15T14:43:52.756Z,70.30
2018-06-15T14:46:22.136Z,71.36
2018-06-15T14:48:51.514Z,71.78
2018-06-15T14:51:20.742Z,72.16
2018-06-15T14:53:50.055Z,72.39
2018-06-15T14:56:19.363Z,73.13
2018-06-15T14:58:48.600Z,73.62
2018-06-15T15:01:17.829Z,74.59
2018-06-15T15:03:47.204Z,76.10
2018-06-15T15:06:16.461Z,77.70
2018-06-15T15:08:45.708Z,75.92
2018-06-15T15:11:15.015Z,67.92
2018-06-15T15:13:44.344Z,67.43
2018-06-15T15:16:13.713Z,68.65
2018-06-15T15:18:43.092Z,71.73
2018-06-15T15:21:12.424Z,71.30
2018-06-15T15:23:41.806Z,72.56
2018-06-15T15:26:11.245Z,69.97
2018-06-15T15:28:40.565Z,73.36
2018-06-15T15:31:09.816Z,78.39
2018-06-15T15:33:39.044Z,81.20
2018-06-15T15:36:08.240Z,83.61
2018-06-15T15:38:37.649Z,85.32
2018-06-15T15:41:06.903Z,86.34
2018-06-15T15:43:36.073Z,84.99
2018-06-15T15:46:05.268Z,83.01
2018-06-15T15:48:34.576Z,84.12
2018-06-15T15:51:03.892Z,83.29
2018-06-15T15:53:33.316Z,82.49
2018-06-15T15:56:02.548Z,82.53
2018-06-15T15:58:31.763Z,85.81
2018-06-15T16:01:00.808Z,85.12
2018-06-15T16:03:29.824Z,79.63
2018-06-15T16:05:59.048Z,80.96
2018-06-15T16:08:28.177Z,81.66
2018-06-15T16:10:57.329Z,79.31
2018-06-15T16:13:26.528Z,78.21
2018-06-15T16:15:55.669Z,76.82
2018-06-15T16:18:24.944Z,78.10
2018-06-15T16:20:54.284Z,79.70
2018-06-15T16:23:23.495Z,80.91
2018-06-15T16:25:52.844Z,81.32
2018-06-15T16:28:22.139Z,83.05
2018-06-15T16:30:51.446Z,83.79
2018-06-15T16:33:20.407Z,83.91
2018-06-15T16:35:49.392Z,84.50
2018-06-15T16:38:18.532Z,82.98
2018-06-15T16:40:47.540Z,84.25
2018-06-15T16:43:16.740Z,81.92
2018-06-15T16:45:46.016Z,81.39
2018-06-15T16:48:15.236Z,81.52
2018-06-15T16:50:44.536Z,81.32
2018-06-15T16:53:14.056Z,83.38
2018-06-15T16:55:43.256Z,85.44
2018-06-15T16:58:12.451Z,86.93
2018-06-15T17:00:41.732Z,88.78
2018-06-15T17:03:11.036Z,86.95
2018-06-15T17:05:40.313Z,83.17
2018-06-15T17:08:09.558Z,82.37
2018-06-15T17:10:38.765Z,87.51
2018-06-15T17:13:08.073Z,89.49
2018-06-15T17:15:37.407Z,90.25
2018-06-15T17:18:07.155Z,90.25
2018-06-15T17:20:36.369Z,91.23
2018-06-15T17:23:05.576Z,91.91
2018-06-15T17:25:34.809Z,90.89
2018-06-15T17:28:04.016Z,90.24
2018-06-15T17:30:33.256Z,89.41
2018-06-15T17:33:02.573Z,90.38
2018-06-15T17:35:31.800Z,90.58
2018-06-15T17:38:00.895Z,91.74
2018-06-15T17:40:30.156Z,91.65
2018-06-15T17:42:59.360Z,92.01
2018-06-15T17:45:28.661Z,92.17
2018-06-15T17:47:57.987Z,91.20
2018-06-15T17:50:27.368Z,92.78
2018-06-15T17:52:56.551Z,93.92
2018-06-15T17:55:25.808Z,94.25
2018-06-15T17:57:55.023Z,94.99
2018-06-15T18:00:24.194Z,95.07
2018-06-15T18:02:53.497Z,94.72
2018-06-15T18:05:22.701Z,95.10
2018-06-15T18:07:52.200Z,93.94
2018-06-15T18:10:22.440Z,94.99
2018-06-15T18:12:51.668Z,96.82
2018-06-15T18:15:21.084Z,97.50
2018-06-15T18:17:50.421Z,96.84
2018-06-15T18:20:19.620Z,95.94
2018-06-15T18:22:48.816Z,95.46
2018-06-15T18:25:18.117Z,95.42
2018-06-15T18:27:47.296Z,95.60
2018-06-15T18:30:16.684Z,97.52
2018-06-15T18:32:46.028Z,95.48
2018-06-15T18:35:15.438Z,95.91
2018-06-15T18:37:44.688Z,96.66
2018-06-15T18:40:13.935Z,97.26
2018-06-15T18:42:43.033Z,97.63
2018-06-15T18:45:12.464Z,96.87
2018-06-15T18:47:42.288Z,98.17
2018-06-15T18:50:11.529Z,97.94
2018-06-15T18:52:40.734Z,98.29
2018-06-15T18:55:10.085Z,98.08
2018-06-15T18:57:39.067Z,98.24
2018-06-15T19:00:08.107Z,98.02
2018-06-15T19:02:37.389Z,97.76
2018-06-15T19:05:06.821Z,98.52
2018-06-15T19:07:35.847Z,96.37
2018-06-15T19:10:05.316Z,95.59
2018-06-15T19:12:34.328Z,96.38
2018-06-15T19:15:04.028Z,96.83
2018-06-15T19:17:33.222Z,95.91
2018-06-15T19:20:02.651Z,95.72
2018-06-15T19:22:31.881Z,96.50
2018-06-15T19:25:01.332Z,97.07
2018-06-15T19:27:30.564Z,97.36
2018-06-15T19:29:59.856Z,95.02
2018-06-15T19:32:29.136Z,95.36
2018-06-15T19:34:58.393Z,97.41
2018-06-15T19:37:27.741Z,96.61
2018-06-15T19:39:57.050Z,95.37
2018-06-15T19:42:26.316Z,95.28
2018-06-15T19:44:55.534Z,93.85
2018-06-15T19:47:24.702Z,94.35
2018-06-15T19:49:54.129Z,93.98
2018-06-15T19:52:23.295Z,93.23
2018-06-15T19:54:52.841Z,93.09
2018-06-15T19:57:22.111Z,92.49
2018-06-15T19:59:51.462Z,92.46
2018-06-15T20:02:20.787Z,92.52
2018-06-15T20:04:50.184Z,92.71
2018-06-15T20:07:19.592Z,93.10
2018-06-15T20:09:48.964Z,93.30
2018-06-15T20:12:18.300Z,93.25
2018-06-15T20:14:47.713Z,92.99
2018-06-15T20:17:17.152Z,94.66
2018-06-15T20:19:46.518Z,95.15
2018-06-15T20:22:16.042Z,96.56
2018-06-15T20:24:45.411Z,97.31
2018-06-15T20:27:14.797Z,97.01
2018-06-15T20:29:44.176Z,97.38
2018-06-15T20:32:13.544Z,97.57
2018-06-15T20:34:42.632Z,97.56
2018-06-15T20:37:11.831Z,98.56
2018-06-15T20:39:41.165Z,99.20
2018-06-15T20:42:10.481Z,98.95
2018-06-15T20:44:39.816Z,98.46
2018-06-15T20:47:09.006Z,98.42
2018-06-15T20:49:38.085Z,98.67
2018-06-15T20:52:07.177Z,99.34
2018-06-15T20:54:36.261Z,98.36
2018-06-15T20:57:05.426Z,98.66
2018-06-15T20:59:34.453Z,98.75
2018-06-15T21:02:03.428Z,99.18
2018-06-15T21:04:32.396Z,98.14
2018-06-15T21:07:01.399Z,99.21
2018-06-15T21:09:30.373Z,99.36
2018-06-15T21:11:59.369Z,98.82
2018-06-15T21:14:28.399Z,99.59
2018-06-15T21:16:57.399Z,100.00
2018-06-15T21:19:26.446Z,100.00
2018-06-15T21:21:55.491Z,100.00
2018-06-15T21:24:24.455Z,100.00
2018-06-15T21:26:53.528Z,100.00
2018-06-15T21:29:22.567Z,100.00
2018-06-15T21:31:51.548Z,100.00
2018-06-15T21:34:20.592Z,100.00
2018-06-15T21:36:49.738Z,100.00
2018-06-15T21:39:19.086Z,100.00
2018-06-15T21:41:48.053Z,100.00
2018-06-15T21:44:17.516Z,100.00
2018-06-15T21:46:46.872Z,100.00
2018-06-15T21:49:16.200Z,100.00
2018-06-15T21:51:45.535Z,100.00
2018-06-15T21:54:14.963Z,100.00
2018-06-15T21:56:44.269Z,100.00
2018-06-15T21:59:13.551Z,100.00
2018-06-15T22:01:42.853Z,100.00
2018-06-15T22:04:12.258Z,100.00
2018-06-15T22:06:41.743Z,100.00
2018-06-15T22:09:11.108Z,100.00
2018-06-15T22:11:40.252Z,100.00
2018-06-15T22:14:09.552Z,100.00
2018-06-15T22:16:43.769Z,100.00
2018-06-15T22:19:13.125Z,100.00
2018-06-15T22:21:42.402Z,100.00
2018-06-15T22:24:11.892Z,100.00
2018-06-15T22:26:41.043Z,100.00
2018-06-15T22:29:10.403Z,100.00
2018-06-15T22:31:39.417Z,100.00
2018-06-15T22:34:08.751Z,100.00
2018-06-15T22:36:38.163Z,100.00
2018-06-15T22:39:13.740Z,100.00
2018-06-15T22:41:43.351Z,100.00
2018-06-15T22:44:13.255Z,100.00
2018-06-15T22:46:42.940Z,100.00
2018-06-15T22:49:12.821Z,100.00
2018-06-15T22:51:42.403Z,100.00
2018-06-15T22:54:11.600Z,100.00
2018-06-15T22:56:40.803Z,100.00
2018-06-15T22:59:10.045Z,100.00
2018-06-15T23:01:39.256Z,100.00
2018-06-15T23:04:08.644Z,100.00
2018-06-15T23:06:37.896Z,100.00
2018-06-15T23:09:09.295Z,100.00
2018-06-15T23:11:38.610Z,100.00
2018-06-15T23:14:07.863Z,100.00
2018-06-15T23:16:37.058Z,100.00
2018-06-15T23:19:06.381Z,100.00
2018-06-15T23:21:35.668Z,100.00
2018-06-15T23:24:04.841Z,100.00
2018-06-15T23:26:34.108Z,100.00
2018-06-15T23:29:03.315Z,100.00
2018-06-15T23:31:32.580Z,100.00
2018-06-15T23:34:01.768Z,100.00
2018-06-15T23:36:31.061Z,100.00
2018-06-15T23:39:00.385Z,100.00
2018-06-15T23:41:29.688Z,100.00
2018-06-15T23:43:58.863Z,100.00
2018-06-15T23:46:28.088Z,100.00
2018-06-15T23:48:57.323Z,100.00
2018-06-15T23:51:26.524Z,100.00
2018-06-15T23:53:55.720Z,100.00
2018-06-15T23:56:25.009Z,100.00
2018-06-15T23:58:54.328Z,100.00
